Time;durP1;ratioP1;P1;durP2;ratioP2;P2;SDS_P1;SDS_P2;PMS_P1;PMS_P2;Temp;Humidity;BMP_temperature;BMP_pressure;BME280_temperature;BME280_humidity;BME280_pressure;Samples;Min_cycle;Max_cycle;Signal;HPM_P1;HPM_P2
2022/12/28 00:00:19;;;;;;;3.78;2.30;;;15.50;67.60;;;;;;4168827;28;20128;-60
2022/12/28 00:03:00;;;;;;;3.03;2.17;;;15.50;67.50;;;;;;4183714;28;20067;-60
2022/12/28 00:05:41;;;;;;;4.15;2.35;;;15.50;67.60;;;;;;4196959;28;20189;-60
2022/12/28 00:08:22;;;;;;;4.63;2.40;;;15.50;67.60;;;;;;4197880;28;20153;-61
2022/12/28 00:11:07;;;;;;;4.75;2.70;;;15.50;67.80;;;;;;4212600;28;20406;-60
2022/12/28 00:13:53;;;;;;;6.47;2.70;;;15.50;67.90;;;;;;4194507;28;20182;-62
2022/12/28 00:16:35;;;;;;;3.83;1.90;;;15.40;67.80;;;;;;4177644;28;20395;-60
2022/12/28 00:19:17;;;;;;;4.93;2.50;;;15.50;67.80;;;;;;4189311;28;20142;-62
2022/12/28 00:22:02;;;;;;;7.00;2.70;;;15.50;67.90;;;;;;4189865;28;20568;-63
2022/12/28 00:24:44;;;;;;;4.85;2.85;;;15.50;67.70;;;;;;4167056;28;20055;-62
2022/12/28 00:27:26;;;;;;;2.75;2.10;;;15.60;67.50;;;;;;4169147;28;20110;-62
2022/12/28 00:30:08;;;;;;;4.10;2.50;;;15.70;67.10;;;;;;4166423;28;20059;-62
2022/12/28 00:32:50;;;;;;;4.32;2.30;;;15.70;66.90;;;;;;4163507;28;20051;-60
2022/12/28 00:35:37;;;;;;;4.30;2.90;;;15.70;66.80;;;;;;4200579;28;20063;-60
2022/12/28 00:38:17;;;;;;;3.35;2.10;;;15.70;66.90;;;;;;4191151;28;20141;-62
2022/12/28 00:41:05;;;;;;;3.92;2.28;;;15.70;67.10;;;;;;4141212;28;20055;-61
2022/12/28 00:43:51;;;;;;;5.53;2.75;;;15.80;67.00;;;;;;4185023;28;20051;-62
2022/12/28 00:46:33;;;;;;;4.70;2.30;;;15.80;66.70;;;;;;4190345;28;20047;-62
2022/12/28 00:49:14;;;;;;;;;;;15.80;66.50;;;;;;4192555;28;20360;-61
2022/12/28 00:51:58;;;;;;;5.03;2.47;;;15.80;66.50;;;;;;4173774;28;20374;-62
2022/12/28 00:54:42;;;;;;;4.93;2.72;;;15.80;66.50;;;;;;4200830;28;20197;-61
2022/12/28 00:57:23;;;;;;;3.33;2.28;;;15.80;66.50;;;;;;4192333;28;20055;-61
2022/12/28 01:00:09;;;;;;;6.03;2.30;;;15.80;66.50;;;;;;4183474;28;20065;-61
2022/12/28 01:02:50;;;;;;;3.65;2.28;;;15.80;66.50;;;;;;4183057;28;20403;-60
2022/12/28 01:05:31;;;;;;;2.80;2.58;;;15.80;67.50;;;;;;4194243;28;20063;-61
2022/12/28 01:08:14;;;;;;;2.90;2.38;;;15.80;66.50;;;;;;4201097;28;20047;-62
2022/12/28 01:10:58;;;;;;;2.35;2.25;;;15.80;66.40;;;;;;4176228;28;20052;-60
2022/12/28 01:13:41;;;;;;;2.53;2.15;;;15.80;66.30;;;;;;4161600;28;20112;-62
2022/12/28 01:16:26;;;;;;;4.57;2.28;;;15.90;66.50;;;;;;4184378;28;20054;-61
2022/12/28 01:19:07;;;;;;;4.00;2.47;;;15.90;66.50;;;;;;4206382;28;20055;-60
2022/12/28 01:21:51;;;;;;;3.78;2.70;;;15.90;66.30;;;;;;4209123;28;20055;-62
2022/12/28 01:24:32;;;;;;;4.32;2.13;;;15.90;67.10;;;;;;4200567;28;20101;-60
2022/12/28 01:27:16;;;;;;;3.25;2.35;;;15.90;66.20;;;;;;4205844;28;20455;-62
2022/12/28 01:29:58;;;;;;;3.15;2.30;;;15.80;67.10;;;;;;4209759;28;20109;-60
2022/12/28 01:32:44;;;;;;;2.35;2.15;;;15.80;66.40;;;;;;4194168;28;20113;-60
2022/12/28 01:35:28;;;;;;;2.88;2.35;;;15.80;66.50;;;;;;4171688;28;20143;-60
2022/12/28 01:38:11;;;;;;;4.95;2.20;;;15.90;66.70;;;;;;4154592;28;20051;-60
2022/12/28 01:40:53;;;;;;;2.90;1.63;;;15.90;66.50;;;;;;4167054;28;20129;-60
2022/12/28 01:43:41;;;;;;;4.10;2.27;;;15.90;66.20;;;;;;4203044;28;20075;-60
2022/12/28 01:46:30;;;;;;;5.78;2.22;;;15.90;66.10;;;;;;4179190;28;20060;-62
2022/12/28 01:49:17;;;;;;;2.97;2.50;;;16.00;66.10;;;;;;4193256;28;20125;-61
2022/12/28 01:52:08;;;;;;;3.22;1.92;;;16.00;65.90;;;;;;4179345;28;20129;-62
2022/12/28 01:54:55;;;;;;;4.95;2.35;;;16.00;65.80;;;;;;4169234;28;20141;-62
2022/12/28 01:57:40;;;;;;;2.33;2.10;;;16.00;66.70;;;;;;4192385;28;20590;-62
2022/12/28 02:00:22;;;;;;;3.83;1.77;;;15.90;65.90;;;;;;4180819;28;20090;-62
2022/12/28 02:03:07;;;;;;;7.03;2.30;;;15.90;66.10;;;;;;4192870;28;20066;-62
2022/12/28 02:05:53;;;;;;;5.70;2.72;;;15.90;66.10;;;;;;4176419;28;20103;-59
2022/12/28 02:08:41;;;;;;;3.33;2.50;;;15.90;67.00;;;;;;4172304;28;20064;-60
2022/12/28 02:11:26;;;;;;;7.18;2.47;;;15.90;66.20;;;;;;4174977;28;20055;-60
2022/12/28 02:14:08;;;;;;;4.38;2.17;;;15.90;66.20;;;;;;4188804;28;20090;-60
2022/12/28 02:16:50;;;;;;;3.40;2.10;;;15.90;66.10;;;;;;4198391;28;20056;-61
2022/12/28 02:19:43;;;;;;;3.03;1.65;;;15.90;66.10;;;;;;4190194;28;20113;-61
2022/12/28 02:23:15;;;;;;;3.20;2.22;;;16.00;66.10;;;;;;4195367;28;20051;-61
2022/12/28 02:26:39;;;;;;;4.15;2.08;;;16.00;65.90;;;;;;4198352;28;20055;-62
2022/12/28 02:29:57;;;;;;;5.05;2.92;;;16.00;65.80;;;;;;4142676;28;20063;-61
2022/12/28 02:32:55;;;;;;;4.28;1.65;;;16.00;65.80;;;;;;4174153;28;20166;-61
2022/12/28 02:35:44;;;;;;;3.17;2.20;;;16.00;65.80;;;;;;4194996;28;20055;-61
2022/12/28 02:38:32;;;;;;;6.53;2.13;;;15.90;65.90;;;;;;4189640;28;20062;-61
2022/12/28 02:41:17;;;;;;;2.83;2.38;;;15.90;66.10;;;;;;4173637;28;20060;-61
2022/12/28 02:44:01;;;;;;;3.92;1.80;;;15.90;66.30;;;;;;4202266;28;20056;-61
2022/12/28 02:50:08;;;;;;;2.42;2.00;;;15.70;66.80;;;;;;4101300;28;20057;-62
2022/12/28 02:53:13;;;;;;;2.20;1.80;;;15.70;67.10;;;;;;4178097;28;20055;-62
2022/12/28 02:56:07;;;;;;;5.70;3.03;;;15.70;67.00;;;;;;4180187;28;20051;-61
2022/12/28 02:59:17;;;;;;;2.33;2.13;;;15.70;67.00;;;;;;4157249;28;22343;-62
2022/12/28 03:02:28;;;;;;;3.63;1.83;;;15.70;67.00;;;;;;4184458;28;20059;-59
2022/12/28 03:05:16;;;;;;;2.05;1.95;;;15.70;67.20;;;;;;4185443;28;20102;-59
2022/12/28 03:08:18;;;;;;;2.20;2.00;;;15.70;67.20;;;;;;4165373;28;20545;-60
2022/12/28 03:11:07;;;;;;;2.00;1.75;;;15.70;67.50;;;;;;4167787;28;20043;-60
2022/12/28 03:14:02;;;;;;;3.60;1.85;;;15.70;67.50;;;;;;4190040;28;20483;-60
2022/12/28 03:32:00;;;;;;;1.48;1.35;;;16.00;66.20;;;;;;4208234;28;20514;-60
2022/12/28 03:34:41;;;;;;;2.40;1.88;;;16.00;66.10;;;;;;4206191;28;20055;-60
2022/12/28 03:37:29;;;;;;;1.38;1.27;;;16.00;66.00;;;;;;4175132;28;20044;-62
2022/12/28 03:40:17;;;;;;;1.60;1.50;;;16.00;66.20;;;;;;4169542;28;20418;-62
2022/12/28 03:46:06;;;;;;;1.65;1.55;;;16.10;65.90;;;;;;4179249;28;20688;-62
2022/12/28 03:48:48;;;;;;;1.65;1.55;;;16.20;65.80;;;;;;4179335;28;20051;-62
2022/12/28 03:51:31;;;;;;;1.75;1.65;;;16.20;65.60;;;;;;4178824;28;20059;-63
2022/12/28 03:54:19;;;;;;;1.85;1.65;;;16.20;65.50;;;;;;4162803;28;20052;-61
2022/12/28 03:57:00;;;;;;;1.73;1.63;;;16.20;65.50;;;;;;4185529;28;20677;-62
2022/12/28 03:59:46;;;;;;;2.20;2.05;;;16.20;65.70;;;;;;4177576;28;20206;-61
2022/12/28 04:02:26;;;;;;;2.28;2.13;;;16.10;65.80;;;;;;4179311;28;20052;-62
2022/12/28 04:05:09;;;;;;;2.13;1.85;;;16.10;66.00;;;;;;4187417;28;20059;-62
2022/12/28 04:07:52;;;;;;;1.65;1.55;;;16.10;66.10;;;;;;4195682;28;20059;-62
2022/12/28 04:10:35;;;;;;;2.38;2.28;;;16.00;66.40;;;;;;4218922;28;20059;-62
2022/12/28 04:13:16;;;;;;;1.35;1.35;;;16.00;66.50;;;;;;4195515;28;20141;-59
2022/12/28 04:16:04;;;;;;;3.40;1.50;;;16.00;66.50;;;;;;4190059;28;20121;-60
2022/12/28 04:18:47;;;;;;;1.63;1.38;;;16.00;66.50;;;;;;4184282;28;20044;-60
2022/12/28 04:21:28;;;;;;;1.67;1.48;;;16.00;66.70;;;;;;4193130;28;20051;-60
2022/12/28 04:24:09;;;;;;;1.65;1.50;;;16.00;66.70;;;;;;4195425;28;20721;-59
2022/12/28 04:26:52;;;;;;;2.15;1.50;;;16.00;66.80;;;;;;4194280;28;20060;-59
2022/12/28 04:29:33;;;;;;;1.17;1.17;;;16.00;67.90;;;;;;4194890;28;20544;-60
2022/12/28 04:32:21;;;;;;;1.25;1.15;;;15.90;67.00;;;;;;4182348;28;20148;-60
2022/12/28 04:35:02;;;;;;;1.83;1.23;;;16.00;66.80;;;;;;4194738;28;20052;-60
2022/12/28 04:37:47;;;;;;;1.20;1.20;;;16.20;66.50;;;;;;4183446;28;20051;-60
2022/12/28 04:40:28;;;;;;;1.40;1.30;;;16.30;66.10;;;;;;4178380;28;20110;-60
2022/12/28 04:43:11;;;;;;;1.25;1.25;;;16.40;66.50;;;;;;4178146;28;20167;-60
2022/12/28 04:45:56;;;;;;;1.23;1.20;;;16.40;65.30;;;;;;4178119;28;20487;-61
2022/12/28 04:48:37;;;;;;;1.20;1.20;;;16.50;65.20;;;;;;4171124;28;20117;-60
2022/12/28 04:51:20;;;;;;;1.10;1.10;;;16.60;65.00;;;;;;4205121;28;20059;-60
2022/12/28 04:54:02;;;;;;;1.55;1.30;;;16.60;64.70;;;;;;4178077;28;20131;-60
2022/12/28 04:56:43;;;;;;;1.10;1.10;;;16.70;64.60;;;;;;4178018;28;20563;-60
2022/12/28 04:59:25;;;;;;;1.58;1.42;;;16.70;64.60;;;;;;4177910;28;20068;-61
2022/12/28 05:02:06;;;;;;;1.30;1.20;;;16.80;64.30;;;;;;4205233;28;20121;-61
2022/12/28 05:04:47;;;;;;;1.17;1.08;;;16.90;64.90;;;;;;4210831;28;20129;-60
2022/12/28 05:07:29;;;;;;;0.93;0.88;;;16.90;63.90;;;;;;4204601;28;20051;-60
2022/12/28 05:10:10;;;;;;;1.10;1.00;;;16.90;63.90;;;;;;4194660;28;20129;-60
2022/12/28 05:12:51;;;;;;;1.10;1.10;;;16.90;63.90;;;;;;4194844;28;20059;-60
2022/12/28 05:15:33;;;;;;;1.17;1.17;;;16.90;63.70;;;;;;4193937;28;20064;-60
2022/12/28 05:18:13;;;;;;;1.00;1.00;;;16.90;63.80;;;;;;4193930;28;20055;-60
2022/12/28 05:20:59;;;;;;;1.00;1.00;;;16.80;63.90;;;;;;4195576;28;20051;-60
2022/12/28 05:23:41;;;;;;;0.95;0.95;;;16.80;64.20;;;;;;4202206;28;20064;-60
2022/12/28 05:26:23;;;;;;;1.30;1.20;;;16.80;64.30;;;;;;4194242;28;20106;-60
2022/12/28 05:29:04;;;;;;;1.33;1.33;;;16.70;64.50;;;;;;4193946;28;20150;-60
2022/12/28 05:31:47;;;;;;;1.00;1.00;;;16.70;64.80;;;;;;4202306;28;20059;-60
2022/12/28 05:34:28;;;;;;;1.02;1.02;;;16.70;65.00;;;;;;4209635;28;20067;-60
2022/12/28 05:37:09;;;;;;;1.15;1.15;;;16.80;64.80;;;;;;4210249;28;20108;-60
2022/12/28 05:39:51;;;;;;;1.10;1.10;;;16.80;64.60;;;;;;4198210;28;20178;-60
2022/12/28 05:42:33;;;;;;;1.15;1.15;;;16.80;64.50;;;;;;4192022;28;20059;-60
2022/12/28 05:45:14;;;;;;;1.30;1.30;;;16.80;64.60;;;;;;4192688;28;20051;-60
2022/12/28 05:47:56;;;;;;;1.33;1.23;;;16.80;64.60;;;;;;4192620;28;20121;-60
2022/12/28 05:50:38;;;;;;;1.33;1.33;;;16.90;64.50;;;;;;4194578;28;20052;-60
2022/12/28 05:53:21;;;;;;;1.48;1.42;;;16.90;64.30;;;;;;4209338;28;20050;-60
2022/12/28 05:56:04;;;;;;;1.40;1.35;;;16.90;64.30;;;;;;4197618;28;20054;-60
2022/12/28 05:58:56;;;;;;;1.48;1.48;;;16.90;64.50;;;;;;4177604;28;20130;-62
2022/12/28 06:01:40;;;;;;;1.70;1.60;;;16.90;64.80;;;;;;4211369;28;20051;-60
2022/12/28 06:04:23;;;;;;;1.55;1.45;;;16.90;64.90;;;;;;4208577;28;20086;-60
2022/12/28 06:07:06;;;;;;;1.65;1.55;;;16.80;64.90;;;;;;4208727;28;20612;-60
2022/12/28 06:09:50;;;;;;;1.70;1.60;;;16.80;65.00;;;;;;4200414;28;20094;-60
2022/12/28 06:12:34;;;;;;;2.33;2.17;;;16.80;65.20;;;;;;4190666;28;20047;-60
2022/12/28 06:15:15;;;;;;;2.13;2.03;;;16.80;65.20;;;;;;4191150;28;20054;-60
2022/12/28 06:17:56;;;;;;;2.22;2.13;;;16.70;65.30;;;;;;4192975;28;20098;-59
2022/12/28 06:20:38;;;;;;;2.10;2.00;;;16.60;65.60;;;;;;4192085;28;20109;-60
2022/12/28 06:23:19;;;;;;;2.22;2.13;;;16.60;66.00;;;;;;4178509;28;20412;-60
2022/12/28 06:26:01;;;;;;;2.07;1.97;;;16.60;65.90;;;;;;4190903;28;20051;-60
2022/12/28 06:28:45;;;;;;;2.45;2.30;;;16.70;65.90;;;;;;4192424;28;20676;-60
2022/12/28 06:31:28;;;;;;;2.50;2.40;;;16.70;65.70;;;;;;4191755;28;20511;-60
2022/12/28 06:34:09;;;;;;;2.50;2.30;;;16.80;65.80;;;;;;4204018;28;20043;-60
2022/12/28 06:36:52;;;;;;;1.67;1.55;;;16.80;65.70;;;;;;4209107;28;20059;-60
2022/12/28 06:39:33;;;;;;;2.15;2.05;;;16.80;65.60;;;;;;4209398;28;20051;-60
2022/12/28 06:42:14;;;;;;;2.63;2.42;;;16.80;65.80;;;;;;4196441;28;20079;-60
2022/12/28 06:44:55;;;;;;;2.00;1.90;;;16.70;66.00;;;;;;4191241;28;20055;-61
2022/12/28 06:47:36;;;;;;;3.85;1.92;;;16.80;66.00;;;;;;4175738;28;20102;-60
2022/12/28 06:50:17;;;;;;;1.73;1.60;;;16.80;65.90;;;;;;4175689;28;20064;-60
2022/12/28 06:52:59;;;;;;;1.88;1.77;;;16.80;65.90;;;;;;4175505;28;20051;-60
2022/12/28 06:55:40;;;;;;;2.03;1.92;;;16.70;65.90;;;;;;4175397;28;20078;-60
2022/12/28 06:58:21;;;;;;;1.50;1.50;;;16.70;66.20;;;;;;4201959;28;20051;-60
2022/12/28 07:01:06;;;;;;;1.45;1.42;;;16.70;66.40;;;;;;4175294;28;20203;-60
2022/12/28 07:03:49;;;;;;;1.40;1.40;;;16.70;66.40;;;;;;4175519;28;20055;-60
2022/12/28 07:06:33;;;;;;;1.88;1.70;;;16.70;66.30;;;;;;4199310;28;20109;-60
2022/12/28 07:09:16;;;;;;;1.50;1.50;;;16.70;66.40;;;;;;4208185;28;20055;-61
2022/12/28 07:11:57;;;;;;;1.40;1.30;;;16.70;66.50;;;;;;4208486;28;20140;-61
2022/12/28 07:14:38;;;;;;;1.77;1.67;;;16.70;66.80;;;;;;4207110;28;20189;-60
2022/12/28 07:17:19;;;;;;;1.23;1.23;;;16.80;67.30;;;;;;4180787;28;20086;-61
2022/12/28 07:20:00;;;;;;;1.90;1.80;;;16.80;66.90;;;;;;4191215;28;20407;-60
2022/12/28 07:22:42;;;;;;;2.03;1.67;;;16.90;66.70;;;;;;4186440;28;20154;-59
2022/12/28 07:25:24;;;;;;;1.95;1.50;;;16.80;66.50;;;;;;4197782;28;20055;-60
2022/12/28 07:28:05;;;;;;;1.95;1.60;;;16.80;66.60;;;;;;4190453;28;20071;-60
2022/12/28 07:30:46;;;;;;;1.60;1.50;;;16.70;66.60;;;;;;4191250;28;20388;-59
2022/12/28 07:33:27;;;;;;;1.65;1.55;;;16.60;66.90;;;;;;4192045;28;20479;-60
2022/12/28 07:36:11;;;;;;;2.20;1.93;;;16.60;67.20;;;;;;4192298;28;20545;-60
2022/12/28 07:38:52;;;;;;;2.50;2.10;;;16.70;67.30;;;;;;4207695;28;20280;-60
2022/12/28 07:41:35;;;;;;;1.65;1.63;;;16.70;67.10;;;;;;4182422;28;20569;-60
2022/12/28 07:44:18;;;;;;;1.70;1.60;;;16.70;67.10;;;;;;4192126;28;20056;-59
2022/12/28 07:46:59;;;;;;;2.45;1.70;;;16.60;67.00;;;;;;4191057;28;20380;-60
2022/12/28 07:49:40;;;;;;;2.00;1.90;;;16.60;67.20;;;;;;4191836;28;20109;-59
2022/12/28 07:52:21;;;;;;;2.38;2.20;;;16.50;67.50;;;;;;4192126;28;20055;-60
2022/12/28 07:55:02;;;;;;;2.08;1.90;;;16.50;67.70;;;;;;4191739;28;20055;-62
2022/12/28 07:57:44;;;;;;;2.13;2.03;;;16.40;68.00;;;;;;4190431;28;20059;-60
2022/12/28 08:00:25;;;;;;;2.05;1.95;;;16.40;68.00;;;;;;4179996;28;20051;-60
2022/12/28 08:03:06;;;;;;;2.65;2.00;;;16.50;68.00;;;;;;4189826;28;20054;-60
2022/12/28 08:05:47;;;;;;;2.72;2.20;;;16.50;67.80;;;;;;4188894;28;20116;-60
2022/12/28 08:08:28;;;;;;;2.78;2.53;;;16.50;67.30;;;;;;4177914;28;20056;-60
2022/12/28 08:11:12;;;;;;;2.42;2.30;;;16.60;67.80;;;;;;4188752;28;20059;-60
2022/12/28 08:13:55;;;;;;;4.95;2.58;;;16.60;67.60;;;;;;4174602;28;20060;-60
2022/12/28 08:16:37;;;;;;;2.50;2.30;;;16.60;67.60;;;;;;4186980;28;20063;-59
2022/12/28 08:19:18;;;;;;;2.42;2.33;;;16.60;67.80;;;;;;4172239;28;20060;-60
2022/12/28 08:22:00;;;;;;;2.90;2.70;;;16.60;67.80;;;;;;4172579;28;20097;-60
2022/12/28 08:24:41;;;;;;;2.50;2.40;;;16.60;67.90;;;;;;4172659;28;20231;-60
2022/12/28 08:27:22;;;;;;;2.53;2.33;;;16.50;67.90;;;;;;4182472;28;20406;-60
2022/12/28 08:30:06;;;;;;;3.08;2.78;;;16.50;68.10;;;;;;4188226;28;20051;-61
2022/12/28 08:32:47;;;;;;;2.63;2.40;;;16.50;68.30;;;;;;4176953;28;20051;-60
2022/12/28 08:35:28;;;;;;;2.80;2.60;;;16.40;68.40;;;;;;4181692;28;20060;-59
2022/12/28 08:38:09;;;;;;;2.95;2.75;;;16.50;68.40;;;;;;4173515;28;20522;-59
2022/12/28 08:40:55;;;;;;;2.55;2.38;;;16.50;68.50;;;;;;4185195;28;20506;-59
2022/12/28 08:43:37;;;;;;;3.08;2.78;;;16.40;68.40;;;;;;4174262;28;20094;-59
2022/12/28 08:46:21;;;;;;;2.40;2.30;;;16.50;68.50;;;;;;4172285;28;20687;-59
2022/12/28 08:49:04;;;;;;;2.70;2.55;;;16.50;68.50;;;;;;4180496;28;20086;-60
2022/12/28 08:51:46;;;;;;;2.90;2.70;;;16.50;68.60;;;;;;4182512;28;20105;-60
2022/12/28 08:54:27;;;;;;;2.85;2.65;;;16.40;68.70;;;;;;4180300;28;20145;-60
2022/12/28 08:57:10;;;;;;;2.50;2.40;;;16.40;68.90;;;;;;4164088;28;20093;-60
2022/12/28 08:59:50;;;;;;;2.78;2.65;;;16.30;70.00;;;;;;4172342;28;20110;-61
2022/12/28 09:02:33;;;;;;;3.35;3.15;;;16.30;69.30;;;;;;4175444;28;20060;-60
2022/12/28 09:05:16;;;;;;;2.40;2.30;;;16.20;69.50;;;;;;4177560;28;20201;-60
2022/12/28 09:07:57;;;;;;;3.22;2.55;;;16.10;69.80;;;;;;4181060;28;20176;-60
2022/12/28 09:10:40;;;;;;;2.13;1.95;;;16.10;70.10;;;;;;4178192;28;20058;-60
2022/12/28 09:13:21;;;;;;;;;;;16.00;70.50;;;;;;4159385;28;20140;-60
2022/12/28 09:16:05;;;;;;;2.00;1.90;;;16.00;70.80;;;;;;4175671;28;19931;-60
2022/12/28 09:18:53;;;;;;;1.83;1.75;;;16.00;70.80;;;;;;4167606;28;20056;-61
2022/12/28 09:21:36;;;;;;;1.70;1.70;;;16.00;70.80;;;;;;4164811;28;20438;-60
2022/12/28 09:24:18;;;;;;;1.27;1.23;;;16.00;70.80;;;;;;4184610;28;20043;-62
2022/12/28 09:26:59;;;;;;;1.05;1.05;;;16.00;70.70;;;;;;4178331;28;20063;-61
2022/12/28 09:29:42;;;;;;;1.30;1.30;;;16.00;70.60;;;;;;4176005;28;20126;-60
2022/12/28 09:32:23;;;;;;;1.10;1.10;;;16.00;70.80;;;;;;4175712;28;20055;-62
2022/12/28 09:35:08;;;;;;;1.27;1.20;;;16.00;70.90;;;;;;4180476;28;20094;-60
2022/12/28 09:37:52;;;;;;;1.50;1.30;;;15.90;71.10;;;;;;4181131;28;20125;-62
2022/12/28 09:40:38;;;;;;;1.20;1.15;;;15.90;71.40;;;;;;4179661;28;20063;-62
2022/12/28 09:43:29;;;;;;;1.30;1.30;;;15.80;71.60;;;;;;4174950;28;20093;-62
2022/12/28 09:46:18;;;;;;;1.25;1.25;;;15.90;71.80;;;;;;4176260;28;20075;-62
2022/12/28 09:49:02;;;;;;;1.10;1.10;;;15.90;71.80;;;;;;4176847;28;20053;-63
2022/12/28 09:51:49;;;;;;;1.13;1.05;;;15.90;71.80;;;;;;4179011;28;20071;-62
2022/12/28 09:54:39;;;;;;;1.08;1.08;;;15.80;71.90;;;;;;4175722;28;20454;-60
2022/12/28 09:57:23;;;;;;;1.30;1.30;;;15.80;72.10;;;;;;4171882;28;20056;-60
2022/12/28 10:00:07;;;;;;;2.47;1.27;;;15.90;72.10;;;;;;4158865;28;20052;-60
2022/12/28 10:02:55;;;;;;;1.70;1.60;;;16.00;71.70;;;;;;4173624;28;20519;-63
2022/12/28 10:05:36;;;;;;;1.50;1.40;;;16.00;71.50;;;;;;4170450;28;20063;-63
2022/12/28 10:08:23;;;;;;;1.95;1.85;;;16.00;71.50;;;;;;4175242;28;20068;-61
2022/12/28 10:11:06;;;;;;;1.55;1.55;;;16.00;71.50;;;;;;4167264;28;20059;-63
2022/12/28 10:13:57;;;;;;;1.77;1.67;;;15.90;71.60;;;;;;4181460;28;20109;-63
2022/12/28 10:16:40;;;;;;;1.50;1.40;;;15.90;71.90;;;;;;4177114;28;20442;-61
2022/12/28 10:19:29;;;;;;;2.22;1.33;;;15.90;72.30;;;;;;4177525;28;20063;-63
2022/12/28 10:22:14;;;;;;;1.13;1.13;;;15.90;72.40;;;;;;4153671;28;20823;-63
2022/12/28 10:24:58;;;;;;;1.20;1.20;;;16.00;72.30;;;;;;4172140;28;20574;-63
2022/12/28 10:27:40;;;;;;;1.42;1.40;;;16.00;72.10;;;;;;4183791;28;20386;-63
2022/12/28 10:30:25;;;;;;;1.25;1.20;;;16.10;72.10;;;;;;4173539;28;20727;-61
2022/12/28 10:33:15;;;;;;;1.15;1.15;;;16.10;72.10;;;;;;4174001;28;20203;-63
2022/12/28 10:35:57;;;;;;;1.25;1.15;;;16.00;72.10;;;;;;4178608;28;20059;-62
2022/12/28 10:38:43;;;;;;;1.20;1.20;;;15.90;72.20;;;;;;4176966;28;20509;-60
2022/12/28 10:41:35;;;;;;;1.23;1.23;;;15.90;72.50;;;;;;4180827;28;20060;-59
2022/12/28 10:44:23;;;;;;;3.00;1.35;;;15.90;72.70;;;;;;4183169;28;20075;-62
2022/12/28 10:47:30;;;;;;;1.10;1.10;;;15.80;72.90;;;;;;4189560;28;20132;-62
2022/12/28 10:50:40;;;;;;;1.60;1.50;;;15.80;73.20;;;;;;4178864;28;20620;-62
2022/12/28 10:53:27;;;;;;;1.60;1.50;;;15.80;73.20;;;;;;4175298;28;20059;-62
2022/12/28 10:56:22;;;;;;;1.40;1.30;;;15.90;72.90;;;;;;4164597;28;20117;-62
2022/12/28 10:59:20;;;;;;;1.45;1.45;;;16.00;72.80;;;;;;4172511;28;20225;-62
2022/12/28 11:02:26;;;;;;;1.65;1.45;;;16.00;72.70;;;;;;4179852;28;20043;-62
2022/12/28 11:05:20;;;;;;;1.20;1.20;;;16.00;73.00;;;;;;4171180;28;20108;-62
2022/12/28 11:08:05;;;;;;;1.65;1.33;;;16.00;73.10;;;;;;4177815;28;20052;-62
2022/12/28 11:10:56;;;;;;;1.70;1.40;;;15.90;73.30;;;;;;4187213;28;20052;-62
2022/12/28 11:13:39;;;;;;;1.17;1.17;;;15.80;74.30;;;;;;4180814;28;20051;-62
2022/12/28 11:16:26;;;;;;;0.88;0.88;;;15.80;73.70;;;;;;4175365;28;20462;-63
2022/12/28 11:19:11;;;;;;;1.30;1.30;;;15.80;74.00;;;;;;4178077;28;20136;-62
2022/12/28 11:21:52;;;;;;;;;;;15.80;73.90;;;;;;4179579;28;20113;-63
2022/12/28 11:24:33;;;;;;;1.33;1.23;;;15.90;73.80;;;;;;4177510;28;19939;-62
2022/12/28 11:27:22;;;;;;;1.17;1.17;;;16.00;73.60;;;;;;4173636;28;20408;-63
2022/12/28 11:30:04;;;;;;;1.25;1.15;;;15.90;73.50;;;;;;4172955;28;20060;-62
2022/12/28 11:32:51;;;;;;;1.00;1.00;;;15.90;73.50;;;;;;4173979;28;20404;-63
2022/12/28 11:35:36;;;;;;;1.10;1.00;;;15.90;73.60;;;;;;4174413;28;20063;-64
2022/12/28 11:38:38;;;;;;;1.58;1.38;;;15.90;73.80;;;;;;4185880;28;20059;-63
2022/12/28 11:41:42;;;;;;;1.85;1.30;;;15.90;74.00;;;;;;4172440;28;20558;-63
2022/12/28 11:44:51;;;;;;;0.80;0.80;;;15.80;74.30;;;;;;4173096;28;20052;-62
2022/12/28 11:47:34;;;;;;;1.00;1.00;;;15.80;74.50;;;;;;4199524;28;20186;-63
2022/12/28 11:50:51;;;;;;;2.15;1.30;;;15.80;74.40;;;;;;4184310;28;20055;-61
2022/12/28 11:53:56;;;;;;;1.40;1.40;;;15.90;74.50;;;;;;4183660;28;20222;-61
2022/12/28 11:56:58;;;;;;;1.23;1.17;;;15.80;74.40;;;;;;4172633;28;20063;-61
2022/12/28 11:59:39;;;;;;;1.35;1.00;;;15.80;74.40;;;;;;4183953;28;20121;-63
2022/12/28 12:02:39;;;;;;;0.93;0.80;;;15.80;74.50;;;;;;4175568;28;20047;-61
2022/12/28 12:05:48;;;;;;;1.30;1.20;;;15.80;74.70;;;;;;4180112;28;20055;-61
2022/12/28 12:08:48;;;;;;;0.80;0.80;;;15.80;75.20;;;;;;4155088;28;20598;-60
2022/12/28 12:11:32;;;;;;;1.30;1.30;;;15.90;75.10;;;;;;4179429;28;20118;-60
2022/12/28 12:14:14;;;;;;;1.38;1.38;;;15.90;75.60;;;;;;4172324;28;20060;-60
2022/12/28 12:17:02;;;;;;;1.55;1.27;;;16.00;74.60;;;;;;4188309;28;20085;-60
2022/12/28 12:19:49;;;;;;;1.20;1.20;;;16.10;74.50;;;;;;4176986;28;20056;-61
2022/12/28 12:22:32;;;;;;;0.90;0.90;;;16.00;74.40;;;;;;4178410;28;20577;-63
2022/12/28 12:25:21;;;;;;;0.88;0.80;;;16.00;74.40;;;;;;4180903;28;20198;-60
2022/12/28 12:28:08;;;;;;;0.75;0.73;;;16.00;74.30;;;;;;4177331;28;20071;-60
2022/12/28 12:30:49;;;;;;;0.90;0.90;;;16.10;74.30;;;;;;4172816;28;20403;-60
2022/12/28 12:33:34;;;;;;;;;;;16.20;74.10;;;;;;4188489;28;20059;-60
2022/12/28 12:36:32;;;;;;;0.80;0.80;;;16.20;73.70;;;;;;4160317;28;19931;-61
2022/12/28 12:39:29;;;;;;;0.70;0.70;;;16.20;73.40;;;;;;4173229;28;20206;-60
2022/12/28 12:42:20;;;;;;;1.17;1.08;;;16.20;73.30;;;;;;4178077;28;20052;-60
2022/12/28 12:45:11;;;;;;;0.75;0.75;;;16.30;73.40;;;;;;4175538;28;20087;-60
2022/12/28 12:48:05;;;;;;;0.65;0.65;;;16.30;73.20;;;;;;4192677;28;20068;-60
2022/12/28 12:51:04;;;;;;;0.68;0.68;;;16.30;72.90;;;;;;4180558;28;20074;-61
2022/12/28 12:53:55;;;;;;;0.80;0.80;;;16.30;72.80;;;;;;4178767;28;20195;-60
2022/12/28 12:56:45;;;;;;;0.98;0.98;;;16.40;72.80;;;;;;4181862;28;20075;-61
2022/12/28 12:59:44;;;;;;;0.85;0.85;;;16.30;72.90;;;;;;4188644;28;20063;-61
2022/12/28 13:02:44;;;;;;;0.90;0.90;;;16.30;73.00;;;;;;4179059;28;20050;-60
2022/12/28 13:05:28;;;;;;;1.05;1.00;;;16.30;72.80;;;;;;4188813;28;20177;-60
2022/12/28 13:08:21;;;;;;;1.23;1.23;;;16.30;72.90;;;;;;4181265;28;20051;-61
2022/12/28 13:11:02;;;;;;;1.00;0.90;;;16.30;73.00;;;;;;4182048;28;20122;-62
2022/12/28 13:13:47;;;;;;;0.88;0.88;;;16.20;73.20;;;;;;4180687;28;20399;-63
2022/12/28 13:16:31;;;;;;;1.23;1.23;;;16.20;73.40;;;;;;4184256;28;20183;-63
2022/12/28 13:19:18;;;;;;;0.80;0.80;;;16.10;73.60;;;;;;4187049;28;20541;-62
2022/12/28 13:22:00;;;;;;;0.80;0.80;;;16.10;73.90;;;;;;4189441;28;20056;-60
2022/12/28 13:24:45;;;;;;;0.95;0.85;;;16.20;73.70;;;;;;4185244;28;20139;-61
2022/12/28 13:27:31;;;;;;;0.93;0.93;;;16.20;73.50;;;;;;4167510;28;20109;-61
2022/12/28 13:30:18;;;;;;;1.05;0.90;;;16.20;73.50;;;;;;4181116;28;20051;-61
2022/12/28 13:33:02;;;;;;;1.25;1.00;;;16.20;73.40;;;;;;4183035;28;20253;-61
2022/12/28 13:35:43;;;;;;;0.90;0.90;;;16.20;73.40;;;;;;4181350;28;20052;-62
2022/12/28 13:38:24;;;;;;;1.25;1.25;;;16.20;73.70;;;;;;4178905;28;20237;-62
2022/12/28 13:41:16;;;;;;;1.65;1.55;;;16.20;73.70;;;;;;4182641;28;20486;-63
2022/12/28 13:44:38;;;;;;;1.27;1.23;;;16.30;73.60;;;;;;4176160;28;20086;-62
2022/12/28 13:47:23;;;;;;;0.82;0.82;;;16.30;73.30;;;;;;4165493;28;20193;-61
2022/12/28 13:50:14;;;;;;;0.75;0.75;;;16.30;73.10;;;;;;4172247;28;20485;-61
2022/12/28 13:53:01;;;;;;;1.38;1.17;;;16.30;73.20;;;;;;4173957;28;20051;-61
2022/12/28 13:55:46;;;;;;;3.95;2.83;;;16.20;73.30;;;;;;4184352;28;20059;-61
2022/12/28 13:58:34;;;;;;;1.65;1.60;;;16.20;73.50;;;;;;4175948;28;20750;-61
2022/12/28 14:01:22;;;;;;;1.10;1.10;;;16.10;73.70;;;;;;4181143;28;20056;-61
2022/12/28 14:04:13;;;;;;;1.80;1.70;;;16.20;73.80;;;;;;4144436;28;20053;-61
2022/12/28 14:07:23;;;;;;;1.15;1.08;;;16.20;73.50;;;;;;4185056;28;20068;-64
2022/12/28 14:10:05;;;;;;;1.00;1.00;;;16.30;73.40;;;;;;4156931;28;20059;-61
2022/12/28 14:12:50;;;;;;;1.02;1.02;;;16.20;73.20;;;;;;4159337;28;20059;-61
2022/12/28 14:15:35;;;;;;;0.70;0.70;;;16.20;73.20;;;;;;4179896;28;20186;-60
2022/12/28 14:18:24;;;;;;;2.15;0.90;;;16.20;73.30;;;;;;4172089;28;20056;-62
2022/12/28 14:21:12;;;;;;;0.55;0.50;;;16.10;73.40;;;;;;4177183;28;20064;-62
2022/12/28 14:24:09;;;;;;;1.17;0.90;;;16.10;73.70;;;;;;4147940;28;20423;-61
2022/12/28 14:26:54;;;;;;;1.17;0.88;;;16.10;73.70;;;;;;4177915;28;21573;-61
2022/12/28 14:29:35;;;;;;;0.93;0.93;;;16.20;73.70;;;;;;4156384;28;20125;-61
2022/12/28 14:32:21;;;;;;;1.92;1.13;;;16.20;73.40;;;;;;4172628;28;20059;-61
2022/12/28 14:35:07;;;;;;;3.25;1.00;;;16.20;73.30;;;;;;4169581;28;20122;-63
2022/12/28 14:37:53;;;;;;;1.15;1.00;;;16.20;73.20;;;;;;4163821;28;20055;-63
2022/12/28 14:40:37;;;;;;;1.05;1.05;;;16.20;73.40;;;;;;4189550;28;20568;-62
2022/12/28 14:43:27;;;;;;;2.47;1.33;;;16.20;74.30;;;;;;4174761;28;20055;-62
2022/12/28 14:46:16;;;;;;;2.03;1.83;;;16.20;73.30;;;;;;4184106;28;20056;-61